sensor_id;sensor_type;location;lat;lon;timestamp;P1;durP1;ratioP1;P2;durP2;ratioP2
83184;SDS011;73080;48.768;11.528;2023-09-30T13:47:28;10.65;;;3.80;;
83184;SDS011;73080;48.768;11.528;2023-09-30T13:49:54;14.23;;;4.30;;
83184;SDS011;73080;48.768;11.528;2023-09-30T13:52:20;11.65;;;3.63;;
83184;SDS011;73080;48.768;11.528;2023-09-30T13:54:46;11.25;;;3.33;;
83184;SDS011;73080;48.768;11.528;2023-09-30T13:57:12;10.07;;;3.90;;
83184;SDS011;73080;48.768;11.528;2023-09-30T13:59:42;10.48;;;3.90;;
83184;SDS011;73080;48.768;11.528;2023-09-30T14:02:10;13.43;;;3.88;;
83184;SDS011;73080;48.768;11.528;2023-09-30T14:04:37;9.85;;;3.33;;
83184;SDS011;73080;48.768;11.528;2023-09-30T14:07:03;11.15;;;3.60;;
83184;SDS011;73080;48.768;11.528;2023-09-30T14:09:30;10.52;;;3.50;;
83184;SDS011;73080;48.768;11.528;2023-09-30T14:11:56;11.10;;;3.70;;
83184;SDS011;73080;48.768;11.528;2023-09-30T14:14:24;9.82;;;3.45;;
83184;SDS011;73080;48.768;11.528;2023-09-30T14:16:49;12.07;;;3.60;;
83184;SDS011;73080;48.768;11.528;2023-09-30T14:19:15;8.35;;;3.10;;
83184;SDS011;73080;48.768;11.528;2023-09-30T14:21:41;11.57;;;3.40;;
83184;SDS011;73080;48.768;11.528;2023-09-30T14:24:07;9.88;;;3.65;;
83184;SDS011;73080;48.768;11.528;2023-09-30T14:26:33;9.70;;;3.17;;
83184;SDS011;73080;48.768;11.528;2023-09-30T14:28:59;11.32;;;4.13;;
83184;SDS011;73080;48.768;11.528;2023-09-30T14:31:28;12.45;;;4.15;;
83184;SDS011;73080;48.768;11.528;2023-09-30T14:33:53;13.05;;;3.70;;
83184;SDS011;73080;48.768;11.528;2023-09-30T14:36:19;12.90;;;3.75;;
83184;SDS011;73080;48.768;11.528;2023-09-30T14:38:45;8.77;;;3.15;;
83184;SDS011;73080;48.768;11.528;2023-09-30T14:41:11;12.93;;;3.70;;
83184;SDS011;73080;48.768;11.528;2023-09-30T14:43:44;10.98;;;3.50;;
83184;SDS011;73080;48.768;11.528;2023-09-30T14:46:10;10.43;;;3.88;;
83184;SDS011;73080;48.768;11.528;2023-09-30T14:48:36;10.85;;;4.05;;
83184;SDS011;73080;48.768;11.528;2023-09-30T14:51:01;12.50;;;4.07;;
83184;SDS011;73080;48.768;11.528;2023-09-30T14:53:29;11.93;;;4.10;;
83184;SDS011;73080;48.768;11.528;2023-09-30T14:55:55;12.27;;;3.83;;
83184;SDS011;73080;48.768;11.528;2023-09-30T14:58:21;10.10;;;3.25;;
83184;SDS011;73080;48.768;11.528;2023-09-30T15:00:47;13.02;;;4.03;;
83184;SDS011;73080;48.768;11.528;2023-09-30T15:03:16;11.93;;;4.03;;
83184;SDS011;73080;48.768;11.528;2023-09-30T15:05:44;10.90;;;4.10;;
83184;SDS011;73080;48.768;11.528;2023-09-30T15:08:10;11.90;;;3.97;;
83184;SDS011;73080;48.768;11.528;2023-09-30T15:10:36;11.25;;;3.85;;
83184;SDS011;73080;48.768;11.528;2023-09-30T15:13:02;10.85;;;3.83;;
83184;SDS011;73080;48.768;11.528;2023-09-30T15:15:30;11.25;;;4.03;;
83184;SDS011;73080;48.768;11.528;2023-09-30T15:17:59;10.68;;;3.50;;
83184;SDS011;73080;48.768;11.528;2023-09-30T15:20:25;8.93;;;3.30;;
83184;SDS011;73080;48.768;11.528;2023-09-30T15:22:51;9.18;;;3.42;;
83184;SDS011;73080;48.768;11.528;2023-09-30T15:25:17;9.70;;;4.05;;
83184;SDS011;73080;48.768;11.528;2023-09-30T15:30:13;10.30;;;3.63;;
83184;SDS011;73080;48.768;11.528;2023-09-30T15:32:39;11.00;;;3.55;;
83184;SDS011;73080;48.768;11.528;2023-09-30T15:35:06;9.88;;;3.05;;
83184;SDS011;73080;48.768;11.528;2023-09-30T15:37:32;10.73;;;3.90;;
83184;SDS011;73080;48.768;11.528;2023-09-30T15:39:59;11.73;;;3.97;;
83184;SDS011;73080;48.768;11.528;2023-09-30T15:42:25;12.80;;;3.30;;
83184;SDS011;73080;48.768;11.528;2023-09-30T15:44:51;13.38;;;4.13;;
83184;SDS011;73080;48.768;11.528;2023-09-30T15:47:21;11.95;;;3.80;;
83184;SDS011;73080;48.768;11.528;2023-09-30T15:49:47;12.43;;;3.42;;
83184;SDS011;73080;48.768;11.528;2023-09-30T15:52:13;9.40;;;3.38;;
83184;SDS011;73080;48.768;11.528;2023-09-30T15:54:39;7.75;;;3.10;;
83184;SDS011;73080;48.768;11.528;2023-09-30T15:57:08;8.68;;;3.58;;
83184;SDS011;73080;48.768;11.528;2023-09-30T15:59:34;10.32;;;3.35;;
83184;SDS011;73080;48.768;11.528;2023-09-30T16:01:59;9.95;;;3.55;;
83184;SDS011;73080;48.768;11.528;2023-09-30T16:04:25;11.50;;;4.15;;
83184;SDS011;73080;48.768;11.528;2023-09-30T16:06:51;11.63;;;3.58;;
83184;SDS011;73080;48.768;11.528;2023-09-30T16:09:16;9.38;;;3.67;;
83184;SDS011;73080;48.768;11.528;2023-09-30T16:11:45;9.82;;;3.45;;
83184;SDS011;73080;48.768;11.528;2023-09-30T16:14:13;9.60;;;3.10;;
83184;SDS011;73080;48.768;11.528;2023-09-30T16:16:45;10.52;;;3.40;;
83184;SDS011;73080;48.768;11.528;2023-09-30T16:19:10;9.57;;;3.33;;
83184;SDS011;73080;48.768;11.528;2023-09-30T16:21:36;11.38;;;3.85;;
83184;SDS011;73080;48.768;11.528;2023-09-30T16:24:02;9.80;;;3.90;;
83184;SDS011;73080;48.768;11.528;2023-09-30T16:26:28;9.65;;;3.53;;
83184;SDS011;73080;48.768;11.528;2023-09-30T16:28:54;8.35;;;3.42;;
83184;SDS011;73080;48.768;11.528;2023-09-30T16:31:19;10.70;;;4.05;;
83184;SDS011;73080;48.768;11.528;2023-09-30T16:33:45;9.70;;;3.17;;
83184;SDS011;73080;48.768;11.528;2023-09-30T16:36:11;11.05;;;3.83;;
83184;SDS011;73080;48.768;11.528;2023-09-30T16:38:36;10.43;;;3.38;;
83184;SDS011;73080;48.768;11.528;2023-09-30T16:41:02;11.38;;;3.67;;
83184;SDS011;73080;48.768;11.528;2023-09-30T16:43:28;10.10;;;3.65;;
83184;SDS011;73080;48.768;11.528;2023-09-30T16:46:00;10.93;;;3.83;;
83184;SDS011;73080;48.768;11.528;2023-09-30T16:48:28;9.98;;;3.22;;
83184;SDS011;73080;48.768;11.528;2023-09-30T16:50:54;10.27;;;2.95;;
83184;SDS011;73080;48.768;11.528;2023-09-30T16:53:20;7.85;;;2.97;;
83184;SDS011;73080;48.768;11.528;2023-09-30T16:55:45;10.48;;;3.50;;
83184;SDS011;73080;48.768;11.528;2023-09-30T16:58:12;12.82;;;3.25;;
83184;SDS011;73080;48.768;11.528;2023-09-30T17:00:43;9.27;;;3.60;;
83184;SDS011;73080;48.768;11.528;2023-09-30T17:03:09;8.70;;;3.17;;
83184;SDS011;73080;48.768;11.528;2023-09-30T17:05:36;10.55;;;3.83;;
83184;SDS011;73080;48.768;11.528;2023-09-30T17:08:03;11.05;;;3.72;;
83184;SDS011;73080;48.768;11.528;2023-09-30T17:10:34;10.32;;;4.18;;
83184;SDS011;73080;48.768;11.528;2023-09-30T17:13:02;8.95;;;3.50;;
83184;SDS011;73080;48.768;11.528;2023-09-30T17:15:28;10.15;;;3.10;;
83184;SDS011;73080;48.768;11.528;2023-09-30T17:17:54;14.55;;;3.72;;
83184;SDS011;73080;48.768;11.528;2023-09-30T17:20:23;8.93;;;3.25;;
83184;SDS011;73080;48.768;11.528;2023-09-30T17:22:49;7.72;;;2.88;;
83184;SDS011;73080;48.768;11.528;2023-09-30T17:25:15;9.52;;;3.55;;
83184;SDS011;73080;48.768;11.528;2023-09-30T17:27:40;9.45;;;3.78;;
83184;SDS011;73080;48.768;11.528;2023-09-30T17:30:07;9.40;;;3.42;;
83184;SDS011;73080;48.768;11.528;2023-09-30T17:32:33;11.45;;;3.60;;
83184;SDS011;73080;48.768;11.528;2023-09-30T17:34:59;7.80;;;3.05;;
83184;SDS011;73080;48.768;11.528;2023-09-30T17:37:24;11.30;;;3.75;;
83184;SDS011;73080;48.768;11.528;2023-09-30T17:39:51;8.82;;;3.55;;
83184;SDS011;73080;48.768;11.528;2023-09-30T17:42:16;12.15;;;4.15;;
83184;SDS011;73080;48.768;11.528;2023-09-30T17:44:47;10.30;;;3.97;;
83184;SDS011;73080;48.768;11.528;2023-09-30T17:47:16;11.88;;;3.92;;
83184;SDS011;73080;48.768;11.528;2023-09-30T17:49:43;9.10;;;3.60;;
83184;SDS011;73080;48.768;11.528;2023-09-30T17:52:12;10.20;;;3.83;;
83184;SDS011;73080;48.768;11.528;2023-09-30T17:54:39;13.38;;;3.90;;
83184;SDS011;73080;48.768;11.528;2023-09-30T17:57:07;10.95;;;3.72;;
83184;SDS011;73080;48.768;11.528;2023-09-30T17:59:33;10.50;;;3.88;;
83184;SDS011;73080;48.768;11.528;2023-09-30T18:01:59;9.30;;;3.88;;
83184;SDS011;73080;48.768;11.528;2023-09-30T18:04:25;12.55;;;4.07;;
83184;SDS011;73080;48.768;11.528;2023-09-30T18:06:50;14.13;;;4.03;;
83184;SDS011;73080;48.768;11.528;2023-09-30T18:09:17;11.02;;;3.85;;
83184;SDS011;73080;48.768;11.528;2023-09-30T18:11:43;9.70;;;3.53;;
83184;SDS011;73080;48.768;11.528;2023-09-30T18:14:08;11.07;;;3.72;;
83184;SDS011;73080;48.768;11.528;2023-09-30T18:16:41;12.88;;;3.40;;
83184;SDS011;73080;48.768;11.528;2023-09-30T18:19:09;10.57;;;4.43;;
83184;SDS011;73080;48.768;11.528;2023-09-30T18:21:35;11.32;;;4.32;;
83184;SDS011;73080;48.768;11.528;2023-09-30T18:24:06;12.52;;;3.97;;
83184;SDS011;73080;48.768;11.528;2023-09-30T18:26:33;10.30;;;3.72;;
83184;SDS011;73080;48.768;11.528;2023-09-30T18:28:58;11.25;;;3.95;;
83184;SDS011;73080;48.768;11.528;2023-09-30T18:31:27;9.38;;;3.65;;
83184;SDS011;73080;48.768;11.528;2023-09-30T18:33:56;14.38;;;4.68;;
83184;SDS011;73080;48.768;11.528;2023-09-30T18:36:21;10.82;;;3.75;;
83184;SDS011;73080;48.768;11.528;2023-09-30T18:38:47;10.55;;;3.60;;
83184;SDS011;73080;48.768;11.528;2023-09-30T18:41:13;10.85;;;3.80;;
83184;SDS011;73080;48.768;11.528;2023-09-30T18:43:50;10.85;;;3.97;;
83184;SDS011;73080;48.768;11.528;2023-09-30T18:46:16;11.77;;;3.97;;
83184;SDS011;73080;48.768;11.528;2023-09-30T18:48:42;9.82;;;3.65;;
83184;SDS011;73080;48.768;11.528;2023-09-30T18:51:11;9.73;;;3.78;;
83184;SDS011;73080;48.768;11.528;2023-09-30T18:53:42;12.30;;;4.03;;
83184;SDS011;73080;48.768;11.528;2023-09-30T18:56:08;12.35;;;4.60;;
83184;SDS011;73080;48.768;11.528;2023-09-30T19:01:02;10.98;;;4.40;;
83184;SDS011;73080;48.768;11.528;2023-09-30T19:03:28;10.80;;;3.92;;
83184;SDS011;73080;48.768;11.528;2023-09-30T19:05:54;11.18;;;4.45;;
83184;SDS011;73080;48.768;11.528;2023-09-30T19:08:24;12.95;;;4.07;;
83184;SDS011;73080;48.768;11.528;2023-09-30T19:10:50;11.27;;;4.55;;
83184;SDS011;73080;48.768;11.528;2023-09-30T19:13:16;10.98;;;4.18;;
83184;SDS011;73080;48.768;11.528;2023-09-30T19:15:42;12.20;;;4.40;;
83184;SDS011;73080;48.768;11.528;2023-09-30T19:18:08;11.45;;;3.78;;
83184;SDS011;73080;48.768;11.528;2023-09-30T19:20:34;11.93;;;3.90;;
83184;SDS011;73080;48.768;11.528;2023-09-30T19:23:00;10.07;;;3.55;;
83184;SDS011;73080;48.768;11.528;2023-09-30T19:25:26;9.57;;;4.00;;
83184;SDS011;73080;48.768;11.528;2023-09-30T19:27:52;11.80;;;4.10;;
83184;SDS011;73080;48.768;11.528;2023-09-30T19:30:18;13.98;;;4.20;;
83184;SDS011;73080;48.768;11.528;2023-09-30T19:32:44;11.48;;;4.00;;
83184;SDS011;73080;48.768;11.528;2023-09-30T19:35:10;11.05;;;3.13;;
83184;SDS011;73080;48.768;11.528;2023-09-30T19:37:43;9.63;;;3.22;;
83184;SDS011;73080;48.768;11.528;2023-09-30T19:40:11;10.40;;;4.40;;
83184;SDS011;73080;48.768;11.528;2023-09-30T19:42:37;10.25;;;3.75;;
83184;SDS011;73080;48.768;11.528;2023-09-30T19:45:04;12.02;;;3.63;;
83184;SDS011;73080;48.768;11.528;2023-09-30T19:47:31;10.38;;;3.97;;
83184;SDS011;73080;48.768;11.528;2023-09-30T19:49:57;10.48;;;3.50;;
83184;SDS011;73080;48.768;11.528;2023-09-30T19:52:25;10.18;;;3.38;;
83184;SDS011;73080;48.768;11.528;2023-09-30T19:54:55;9.82;;;3.30;;
83184;SDS011;73080;48.768;11.528;2023-09-30T19:57:21;9.93;;;3.90;;
83184;SDS011;73080;48.768;11.528;2023-09-30T19:59:47;10.73;;;3.88;;
83184;SDS011;73080;48.768;11.528;2023-09-30T20:02:13;12.27;;;4.00;;
83184;SDS011;73080;48.768;11.528;2023-09-30T20:04:41;12.25;;;4.35;;
83184;SDS011;73080;48.768;11.528;2023-09-30T20:07:08;11.02;;;4.15;;
83184;SDS011;73080;48.768;11.528;2023-09-30T20:09:40;11.60;;;4.10;;
83184;SDS011;73080;48.768;11.528;2023-09-30T20:12:10;8.68;;;3.20;;
83184;SDS011;73080;48.768;11.528;2023-09-30T20:14:43;10.23;;;3.95;;
83184;SDS011;73080;48.768;11.528;2023-09-30T20:17:11;10.70;;;3.83;;
83184;SDS011;73080;48.768;11.528;2023-09-30T20:19:43;10.35;;;4.30;;
83184;SDS011;73080;48.768;11.528;2023-09-30T20:22:09;11.25;;;3.88;;
83184;SDS011;73080;48.768;11.528;2023-09-30T20:24:35;15.60;;;4.85;;
83184;SDS011;73080;48.768;11.528;2023-09-30T20:27:01;13.50;;;4.03;;
83184;SDS011;73080;48.768;11.528;2023-09-30T20:29:30;12.13;;;4.13;;
83184;SDS011;73080;48.768;11.528;2023-09-30T20:31:56;9.38;;;3.65;;
83184;SDS011;73080;48.768;11.528;2023-09-30T20:34:22;9.85;;;3.92;;
83184;SDS011;73080;48.768;11.528;2023-09-30T20:36:48;11.65;;;3.92;;
83184;SDS011;73080;48.768;11.528;2023-09-30T20:39:14;11.32;;;3.83;;
83184;SDS011;73080;48.768;11.528;2023-09-30T20:41:41;9.23;;;3.60;;
83184;SDS011;73080;48.768;11.528;2023-09-30T20:44:07;10.60;;;3.83;;
83184;SDS011;73080;48.768;11.528;2023-09-30T20:46:33;10.32;;;3.75;;
83184;SDS011;73080;48.768;11.528;2023-09-30T20:49:00;9.30;;;3.63;;
83184;SDS011;73080;48.768;11.528;2023-09-30T20:51:26;12.27;;;5.07;;
83184;SDS011;73080;48.768;11.528;2023-09-30T20:53:52;10.23;;;4.93;;
83184;SDS011;73080;48.768;11.528;2023-09-30T20:56:18;11.60;;;4.72;;
83184;SDS011;73080;48.768;11.528;2023-09-30T20:58:48;13.20;;;4.85;;
83184;SDS011;73080;48.768;11.528;2023-09-30T21:01:18;13.32;;;5.63;;
83184;SDS011;73080;48.768;11.528;2023-09-30T21:03:44;12.18;;;4.90;;
83184;SDS011;73080;48.768;11.528;2023-09-30T21:06:09;11.75;;;4.63;;
83184;SDS011;73080;48.768;11.528;2023-09-30T21:08:36;13.05;;;5.05;;
83184;SDS011;73080;48.768;11.528;2023-09-30T21:11:03;13.85;;;5.75;;
83184;SDS011;73080;48.768;11.528;2023-09-30T21:13:29;15.20;;;5.82;;
83184;SDS011;73080;48.768;11.528;2023-09-30T21:15:55;13.50;;;5.30;;
83184;SDS011;73080;48.768;11.528;2023-09-30T21:18:22;11.68;;;5.03;;
83184;SDS011;73080;48.768;11.528;2023-09-30T21:20:48;12.13;;;5.35;;
83184;SDS011;73080;48.768;11.528;2023-09-30T21:23:14;15.05;;;5.90;;
83184;SDS011;73080;48.768;11.528;2023-09-30T21:25:40;11.75;;;4.75;;
83184;SDS011;73080;48.768;11.528;2023-09-30T21:28:06;11.82;;;5.07;;
83184;SDS011;73080;48.768;11.528;2023-09-30T21:30:31;12.40;;;4.70;;
83184;SDS011;73080;48.768;11.528;2023-09-30T21:32:59;12.65;;;5.35;;
83184;SDS011;73080;48.768;11.528;2023-09-30T21:35:28;12.00;;;5.78;;
83184;SDS011;73080;48.768;11.528;2023-09-30T21:37:57;13.20;;;5.57;;
83184;SDS011;73080;48.768;11.528;2023-09-30T21:40:26;14.07;;;5.35;;
83184;SDS011;73080;48.768;11.528;2023-09-30T21:42:51;12.02;;;5.60;;
83184;SDS011;73080;48.768;11.528;2023-09-30T21:45:17;9.88;;;4.57;;
83184;SDS011;73080;48.768;11.528;2023-09-30T21:47:42;10.77;;;4.97;;
83184;SDS011;73080;48.768;11.528;2023-09-30T21:50:08;13.43;;;4.32;;
83184;SDS011;73080;48.768;11.528;2023-09-30T21:52:34;9.90;;;4.18;;
83184;SDS011;73080;48.768;11.528;2023-09-30T21:55:03;10.60;;;4.45;;
83184;SDS011;73080;48.768;11.528;2023-09-30T21:57:30;11.50;;;4.22;;
83184;SDS011;73080;48.768;11.528;2023-09-30T21:59:56;11.00;;;4.18;;
83184;SDS011;73080;48.768;11.528;2023-09-30T22:02:21;11.80;;;4.05;;
83184;SDS011;73080;48.768;11.528;2023-09-30T22:04:50;9.88;;;3.88;;
83184;SDS011;73080;48.768;11.528;2023-09-30T22:07:17;10.90;;;4.10;;
83184;SDS011;73080;48.768;11.528;2023-09-30T22:09:47;9.32;;;3.78;;
83184;SDS011;73080;48.768;11.528;2023-09-30T22:12:12;10.38;;;4.13;;
83184;SDS011;73080;48.768;11.528;2023-09-30T22:14:38;10.43;;;3.72;;
83184;SDS011;73080;48.768;11.528;2023-09-30T22:17:04;9.25;;;4.05;;
83184;SDS011;73080;48.768;11.528;2023-09-30T22:19:30;11.32;;;4.13;;
83184;SDS011;73080;48.768;11.528;2023-09-30T22:21:59;10.43;;;3.72;;
83184;SDS011;73080;48.768;11.528;2023-09-30T22:24:25;12.80;;;5.07;;
83184;SDS011;73080;48.768;11.528;2023-09-30T22:26:55;11.80;;;3.70;;
83184;SDS011;73080;48.768;11.528;2023-09-30T22:29:20;10.85;;;3.67;;
83184;SDS011;73080;48.768;11.528;2023-09-30T22:31:46;13.45;;;4.80;;
83184;SDS011;73080;48.768;11.528;2023-09-30T22:34:12;11.65;;;3.97;;
83184;SDS011;73080;48.768;11.528;2023-09-30T22:36:38;11.90;;;4.05;;
83184;SDS011;73080;48.768;11.528;2023-09-30T22:39:06;11.40;;;4.18;;
83184;SDS011;73080;48.768;11.528;2023-09-30T22:41:33;12.55;;;3.72;;
83184;SDS011;73080;48.768;11.528;2023-09-30T22:44:02;8.38;;;3.53;;
83184;SDS011;73080;48.768;11.528;2023-09-30T22:46:28;11.20;;;3.90;;
83184;SDS011;73080;48.768;11.528;2023-09-30T22:48:54;11.18;;;4.40;;
83184;SDS011;73080;48.768;11.528;2023-09-30T22:51:21;10.73;;;4.38;;
83184;SDS011;73080;48.768;11.528;2023-09-30T22:53:47;9.18;;;3.75;;
83184;SDS011;73080;48.768;11.528;2023-09-30T22:56:16;8.10;;;3.17;;
83184;SDS011;73080;48.768;11.528;2023-09-30T22:58:43;10.68;;;3.95;;
83184;SDS011;73080;48.768;11.528;2023-09-30T23:01:09;10.77;;;4.00;;
83184;SDS011;73080;48.768;11.528;2023-09-30T23:03:41;9.73;;;3.78;;
83184;SDS011;73080;48.768;11.528;2023-09-30T23:06:09;12.57;;;4.65;;
83184;SDS011;73080;48.768;11.528;2023-09-30T23:08:36;9.88;;;3.97;;
83184;SDS011;73080;48.768;11.528;2023-09-30T23:11:11;8.30;;;4.10;;
83184;SDS011;73080;48.768;11.528;2023-09-30T23:13:37;7.78;;;3.80;;
83184;SDS011;73080;48.768;11.528;2023-09-30T23:16:03;9.57;;;4.43;;
83184;SDS011;73080;48.768;11.528;2023-09-30T23:18:31;9.45;;;3.88;;
83184;SDS011;73080;48.768;11.528;2023-09-30T23:20:57;9.80;;;3.85;;
83184;SDS011;73080;48.768;11.528;2023-09-30T23:23:22;10.38;;;4.53;;
83184;SDS011;73080;48.768;11.528;2023-09-30T23:25:50;11.60;;;4.03;;
83184;SDS011;73080;48.768;11.528;2023-09-30T23:28:18;11.00;;;4.57;;
83184;SDS011;73080;48.768;11.528;2023-09-30T23:30:49;9.60;;;4.35;;
83184;SDS011;73080;48.768;11.528;2023-09-30T23:33:15;11.63;;;4.32;;
83184;SDS011;73080;48.768;11.528;2023-09-30T23:35:43;11.32;;;4.43;;
83184;SDS011;73080;48.768;11.528;2023-09-30T23:38:09;11.05;;;4.38;;
83184;SDS011;73080;48.768;11.528;2023-09-30T23:40:35;11.05;;;5.25;;
83184;SDS011;73080;48.768;11.528;2023-09-30T23:43:02;12.02;;;4.95;;
83184;SDS011;73080;48.768;11.528;2023-09-30T23:45:29;10.02;;;4.53;;
83184;SDS011;73080;48.768;11.528;2023-09-30T23:48:05;9.38;;;4.22;;
83184;SDS011;73080;48.768;11.528;2023-09-30T23:50:35;12.88;;;4.47;;
83184;SDS011;73080;48.768;11.528;2023-09-30T23:53:11;9.18;;;4.50;;
83184;SDS011;73080;48.768;11.528;2023-09-30T23:55:38;11.77;;;4.25;;
83184;SDS011;73080;48.768;11.528;2023-09-30T23:58:04;10.98;;;4.85;;
